createdAt,value
2019-04-20T00:00:00.821Z,8.98
2019-04-20T00:02:27.986Z,9.13
2019-04-20T00:04:57.118Z,8.30
2019-04-20T00:07:30.925Z,9.48
2019-04-20T00:10:04.510Z,10.90
2019-04-20T00:12:39.441Z,8.80
2019-04-20T00:14:58.582Z,8.95
2019-04-20T00:17:28.627Z,10.35
2019-04-20T00:19:59.045Z,10.75
2019-04-20T00:22:45.135Z,9.98
2019-04-20T00:25:20.966Z,9.03
2019-04-20T00:28:19.474Z,8.78
2019-04-20T00:30:57.076Z,9.83
2019-04-20T00:33:14.850Z,12.78
2019-04-20T00:35:35.827Z,8.18
2019-04-20T00:38:05.639Z,7.37
2019-04-20T00:40:35.568Z,9.03
2019-04-20T00:43:06.659Z,9.53
2019-04-20T00:45:44.941Z,8.10
2019-04-20T00:48:19.025Z,9.90
2019-04-20T00:50:52.176Z,9.98
2019-04-20T00:53:19.536Z,8.60
2019-04-20T00:55:38.041Z,10.35
2019-04-20T00:58:18.516Z,8.53
2019-04-20T01:00:59.937Z,9.18
2019-04-20T01:03:20.759Z,9.13
2019-04-20T01:06:12.105Z,8.75
2019-04-20T01:08:57.294Z,8.58
2019-04-20T01:11:33.175Z,9.63
2019-04-20T01:14:03.015Z,10.60
2019-04-20T01:16:36.817Z,9.20
2019-04-20T01:18:58.353Z,8.75
2019-04-20T01:21:30.424Z,12.88
2019-04-20T01:24:01.560Z,8.95
2019-04-20T01:26:29.293Z,8.00
2019-04-20T01:29:08.732Z,9.43
2019-04-20T01:31:37.330Z,10.15
2019-04-20T01:34:08.321Z,10.18
2019-04-20T01:36:46.179Z,9.65
2019-04-20T01:39:15.974Z,10.82
2019-04-20T01:41:32.962Z,17.57
2019-04-20T01:44:02.597Z,11.18
2019-04-20T01:46:32.194Z,12.47
2019-04-20T01:49:10.523Z,11.08
2019-04-20T01:51:45.947Z,12.47
2019-04-20T01:54:23.441Z,10.90
2019-04-20T01:56:53.445Z,12.18
2019-04-20T01:59:29.178Z,14.23
2019-04-20T02:02:03.191Z,11.38
2019-04-20T02:04:41.039Z,15.20
2019-04-20T02:07:09.093Z,14.33
2019-04-20T02:09:45.449Z,10.98
2019-04-20T02:12:16.574Z,14.83
2019-04-20T02:14:47.897Z,14.33
2019-04-20T02:17:21.462Z,11.63
2019-04-20T02:20:07.874Z,13.18
2019-04-20T02:22:55.318Z,14.23
2019-04-20T02:25:31.035Z,12.35
2019-04-20T02:28:38.283Z,15.05
2019-04-20T02:31:32.582Z,12.03
2019-04-20T02:36:55.033Z,14.50
2019-04-20T02:39:28.673Z,13.18
2019-04-20T02:42:03.867Z,14.60
2019-04-20T02:44:52.468Z,12.10
2019-04-20T02:49:46.683Z,14.38
2019-04-20T02:52:12.419Z,14.13
2019-04-20T02:54:40.821Z,13.75
2019-04-20T02:57:24.323Z,14.20
2019-04-20T03:02:18.435Z,12.07
2019-04-20T03:04:42.257Z,13.72
2019-04-20T03:07:34.409Z,14.20
2019-04-20T03:10:15.599Z,12.43
2019-04-20T03:12:42.769Z,13.53
2019-04-20T03:15:13.669Z,13.20
2019-04-20T03:18:14.051Z,14.23
2019-04-20T03:21:00.695Z,11.95
2019-04-20T03:23:31.109Z,14.45
2019-04-20T03:26:06.394Z,14.45
2019-04-20T03:28:50.553Z,12.82
2019-04-20T03:32:15.055Z,12.18
2019-04-20T03:34:48.936Z,11.43
2019-04-20T03:36:59.383Z,10.98
2019-04-20T03:39:27.708Z,12.05
2019-04-20T03:41:54.874Z,13.40
2019-04-20T03:44:29.274Z,12.18
2019-04-20T03:47:05.215Z,12.00
2019-04-20T03:50:10.581Z,12.98
2019-04-20T03:53:08.710Z,12.65
2019-04-20T03:55:51.625Z,11.33
2019-04-20T03:58:28.950Z,13.65
2019-04-20T04:01:45.921Z,12.90
2019-04-20T04:04:16.869Z,11.63
2019-04-20T04:06:36.057Z,11.88
2019-04-20T04:09:14.725Z,13.95
2019-04-20T04:11:44.608Z,13.08
2019-04-20T04:13:58.877Z,12.05
2019-04-20T04:16:36.298Z,11.12
2019-04-20T04:19:12.682Z,11.83
2019-04-20T04:21:51.042Z,12.50
2019-04-20T04:24:20.018Z,12.58
2019-04-20T04:26:57.599Z,10.30
2019-04-20T04:29:39.618Z,12.45
2019-04-20T04:32:12.041Z,14.75
2019-04-20T04:34:35.089Z,13.35
2019-04-20T04:37:15.218Z,11.15
2019-04-20T04:40:05.011Z,14.23
2019-04-20T04:42:39.245Z,11.85
2019-04-20T04:44:50.422Z,12.15
2019-04-20T04:47:14.874Z,10.45
2019-04-20T04:49:49.332Z,13.00
2019-04-20T04:52:19.159Z,12.05
2019-04-20T04:54:58.369Z,12.65
2019-04-20T04:57:28.523Z,10.13
2019-04-20T04:59:57.391Z,13.08
2019-04-20T05:02:33.415Z,9.75
2019-04-20T05:05:28.028Z,10.50
2019-04-20T05:08:06.314Z,8.85
2019-04-20T05:10:26.649Z,8.98
2019-04-20T05:12:56.931Z,10.43
2019-04-20T05:15:39.335Z,10.40
2019-04-20T05:18:13.109Z,10.88
2019-04-20T05:20:47.239Z,9.30
2019-04-20T05:23:47.991Z,10.50
2019-04-20T05:27:07.230Z,9.45
2019-04-20T05:29:27.390Z,10.53
2019-04-20T05:32:00.822Z,8.83
2019-04-20T05:34:47.456Z,7.78
2019-04-20T05:37:21.837Z,10.80
2019-04-20T05:39:47.415Z,10.10
2019-04-20T05:42:20.373Z,9.98
2019-04-20T05:44:46.043Z,9.55
2019-04-20T05:47:33.194Z,9.73
2019-04-20T05:50:00.759Z,10.08
2019-04-20T05:52:56.297Z,7.75
2019-04-20T05:55:43.253Z,10.32
2019-04-20T05:58:17.812Z,8.73
2019-04-20T06:00:57.489Z,8.78
2019-04-20T06:03:26.119Z,8.80
2019-04-20T06:06:03.738Z,7.70
2019-04-20T06:08:53.940Z,7.47
2019-04-20T06:11:44.537Z,7.78
2019-04-20T06:14:10.436Z,11.78
2019-04-20T06:17:04.132Z,8.48
2019-04-20T06:19:35.941Z,5.10
2019-04-20T06:22:35.183Z,6.47
2019-04-20T06:27:55.342Z,8.50
2019-04-20T06:30:23.061Z,9.65
2019-04-20T06:33:38.645Z,8.73
2019-04-20T06:36:27.497Z,9.90
2019-04-20T06:39:16.170Z,8.88
2019-04-20T06:42:14.858Z,8.48
2019-04-20T06:44:45.908Z,6.45
2019-04-20T06:47:22.788Z,8.23
2019-04-20T06:50:13.581Z,7.62
2019-04-20T06:53:01.533Z,8.20
2019-04-20T06:55:59.153Z,9.58
2019-04-20T06:58:50.930Z,8.43
2019-04-20T07:01:21.825Z,7.65
2019-04-20T07:04:22.383Z,10.90
2019-04-20T07:07:07.493Z,9.60
2019-04-20T07:09:55.700Z,9.18
2019-04-20T07:12:14.342Z,8.45
2019-04-20T07:14:39.426Z,12.07
2019-04-20T07:18:00.257Z,8.35
2019-04-20T07:21:02.129Z,7.00
2019-04-20T07:23:48.433Z,6.08
2019-04-20T07:26:22.653Z,7.85
2019-04-20T07:29:18.480Z,8.70
2019-04-20T07:31:53.957Z,11.75
2019-04-20T07:34:28.013Z,7.60
2019-04-20T07:37:28.099Z,8.98
2019-04-20T07:40:16.299Z,6.53
2019-04-20T07:42:58.946Z,10.68
2019-04-20T07:48:36.301Z,10.53
2019-04-20T07:50:50.957Z,5.90
2019-04-20T07:53:36.210Z,5.22
2019-04-20T07:56:25.819Z,5.55
2019-04-20T07:58:55.348Z,7.60
2019-04-20T08:02:07.813Z,5.00
2019-04-20T08:04:32.406Z,8.48
2019-04-20T08:07:35.175Z,6.10
2019-04-20T08:09:57.378Z,10.53
2019-04-20T08:15:49.508Z,6.15
2019-04-20T08:18:39.990Z,4.83
2019-04-20T08:21:13.016Z,5.55
2019-04-20T08:23:47.302Z,9.15
2019-04-20T08:26:42.060Z,6.80
2019-04-20T08:29:47.544Z,5.05
2019-04-20T08:32:38.897Z,4.83
2019-04-20T08:35:30.067Z,5.55
2019-04-20T08:38:05.941Z,9.43
2019-04-20T08:40:29.889Z,9.48
2019-04-20T08:43:12.875Z,3.62
2019-04-20T08:45:34.819Z,5.72
2019-04-20T08:48:27.478Z,12.78
2019-04-20T08:50:54.485Z,6.37
2019-04-20T08:53:37.004Z,7.62
2019-04-20T08:55:59.120Z,6.03
2019-04-20T08:58:33.942Z,7.40
2019-04-20T09:01:18.424Z,7.33
2019-04-20T09:04:11.104Z,4.75
2019-04-20T09:07:10.179Z,5.22
2019-04-20T09:09:53.809Z,5.72
2019-04-20T09:12:40.604Z,5.67
2019-04-20T09:14:53.030Z,6.37
2019-04-20T09:17:36.909Z,8.30
2019-04-20T09:20:10.590Z,7.87
2019-04-20T09:23:11.082Z,6.75
2019-04-20T09:28:32.264Z,8.13
2019-04-20T09:31:33.110Z,6.42
2019-04-20T09:34:20.352Z,10.13
2019-04-20T09:37:20.347Z,8.08
2019-04-20T09:40:21.279Z,5.83
2019-04-20T09:42:41.372Z,6.67
2019-04-20T09:45:20.218Z,6.70
2019-04-20T09:47:47.857Z,7.50
2019-04-20T09:50:33.701Z,7.05
2019-04-20T09:53:06.024Z,6.83
2019-04-20T09:55:31.263Z,7.17
2019-04-20T09:58:10.061Z,8.38
2019-04-20T10:00:43.813Z,7.05
2019-04-20T10:03:31.096Z,5.50
2019-04-20T10:06:05.413Z,5.53
2019-04-20T10:08:43.527Z,7.17
2019-04-20T10:11:13.822Z,4.80
2019-04-20T10:13:43.954Z,5.55
2019-04-20T10:16:35.684Z,5.33
2019-04-20T10:19:04.912Z,6.25
2019-04-20T10:21:52.964Z,8.00
2019-04-20T10:24:24.376Z,8.13
2019-04-20T10:26:54.616Z,7.12
2019-04-20T10:29:41.697Z,5.55
2019-04-20T10:32:50.525Z,6.47
2019-04-20T10:35:25.478Z,6.30
2019-04-20T10:37:59.754Z,5.92
2019-04-20T10:40:58.173Z,6.55
2019-04-20T10:43:19.805Z,5.83
2019-04-20T10:46:08.945Z,6.22
2019-04-20T10:48:45.261Z,5.37
2019-04-20T10:51:08.932Z,4.65
2019-04-20T10:53:44.427Z,6.97
2019-04-20T10:56:14.181Z,4.67
2019-04-20T10:58:51.682Z,5.50
2019-04-20T11:01:21.841Z,8.13
2019-04-20T11:03:56.548Z,7.08
2019-04-20T11:06:47.858Z,4.83
2019-04-20T11:09:36.629Z,4.78
2019-04-20T11:12:24.650Z,6.03
2019-04-20T11:14:54.509Z,5.40
2019-04-20T11:17:28.520Z,5.08
2019-04-20T11:19:59.211Z,6.20
2019-04-20T11:22:32.591Z,4.92
2019-04-20T11:25:14.369Z,11.90
2019-04-20T11:27:43.890Z,5.62
2019-04-20T11:30:18.230Z,5.08
2019-04-20T11:32:53.722Z,4.33
2019-04-20T11:35:41.285Z,4.97
2019-04-20T11:38:14.290Z,6.58
2019-04-20T11:40:43.164Z,3.08
2019-04-20T11:43:13.364Z,4.47
2019-04-20T11:45:45.123Z,4.95
2019-04-20T11:48:14.157Z,3.20
2019-04-20T11:51:03.402Z,4.40
2019-04-20T11:53:52.281Z,3.58
2019-04-20T11:56:40.829Z,4.85
2019-04-20T11:59:27.365Z,2.90
2019-04-20T12:02:34.511Z,3.77
2019-04-20T12:05:28.398Z,5.17
2019-04-20T12:07:51.069Z,1.95
2019-04-20T12:10:39.167Z,3.95
2019-04-20T12:13:28.871Z,3.02
2019-04-20T12:16:05.662Z,3.02
2019-04-20T12:18:57.791Z,3.08
2019-04-20T12:21:45.775Z,6.37
2019-04-20T12:24:33.831Z,2.80
2019-04-20T12:27:10.318Z,2.02
2019-04-20T12:29:48.301Z,3.55
2019-04-20T12:32:43.474Z,2.30
2019-04-20T12:35:12.147Z,3.15
2019-04-20T12:37:43.149Z,2.22
2019-04-20T12:40:17.417Z,2.05
2019-04-20T12:42:48.824Z,6.10
2019-04-20T12:45:33.566Z,3.20
2019-04-20T12:48:05.864Z,2.55
2019-04-20T12:50:35.293Z,3.33
2019-04-20T12:53:12.842Z,3.52
2019-04-20T12:55:41.632Z,2.25
2019-04-20T12:58:10.572Z,2.70
2019-04-20T13:01:02.581Z,4.12
2019-04-20T13:03:39.330Z,2.77
2019-04-20T13:06:23.868Z,2.52
2019-04-20T13:09:12.804Z,4.28
2019-04-20T13:12:19.753Z,5.00
2019-04-20T13:15:32.097Z,5.25
2019-04-20T13:18:03.320Z,2.30
2019-04-20T13:20:39.760Z,3.33
2019-04-20T13:23:09.271Z,3.90
2019-04-20T13:25:48.705Z,3.12
2019-04-20T13:28:18.904Z,4.37
2019-04-20T13:30:48.562Z,4.47
2019-04-20T13:33:20.443Z,3.67
2019-04-20T13:35:54.307Z,4.08
2019-04-20T13:38:44.134Z,3.37
2019-04-20T13:41:13.748Z,2.42
2019-04-20T13:43:43.822Z,2.70
2019-04-20T13:46:13.704Z,6.25
2019-04-20T13:48:42.701Z,3.72
2019-04-20T13:51:12.741Z,2.52
2019-04-20T13:53:48.980Z,3.35
2019-04-20T13:56:37.641Z,2.95
2019-04-20T13:59:23.812Z,4.12
2019-04-20T14:02:31.339Z,2.77
2019-04-20T14:05:02.794Z,2.30
2019-04-20T14:07:33.210Z,2.35
2019-04-20T14:10:39.588Z,3.02
2019-04-20T14:13:17.505Z,1.80
2019-04-20T14:16:00.874Z,2.58
2019-04-20T14:18:35.369Z,1.45
2019-04-20T14:21:08.030Z,2.50
2019-04-20T14:23:57.061Z,1.40
2019-04-20T14:26:48.794Z,3.27
2019-04-20T14:29:21.218Z,1.15
2019-04-20T14:31:53.877Z,1.40
2019-04-20T14:34:33.010Z,2.30
2019-04-20T14:37:11.016Z,2.62
2019-04-20T14:39:58.866Z,1.72
2019-04-20T14:42:37.388Z,1.45
2019-04-20T14:45:01.912Z,3.02
2019-04-20T14:47:32.016Z,3.15
2019-04-20T14:50:02.676Z,3.05
2019-04-20T14:52:33.400Z,2.95
2019-04-20T14:55:03.617Z,3.22
2019-04-20T14:57:32.724Z,5.05
2019-04-20T15:00:07.608Z,5.22
2019-04-20T15:02:36.450Z,2.90
2019-04-20T15:05:05.473Z,2.00
2019-04-20T15:07:34.660Z,3.08
2019-04-20T15:10:04.690Z,2.87
2019-04-20T15:12:41.957Z,2.47
2019-04-20T15:15:04.926Z,3.30
2019-04-20T15:17:43.603Z,7.20
2019-04-20T15:20:19.705Z,4.03
2019-04-20T15:22:49.933Z,5.28
2019-04-20T15:25:18.641Z,4.60
2019-04-20T15:27:48.202Z,6.25
2019-04-20T15:30:18.309Z,3.52
2019-04-20T15:32:47.195Z,2.85
2019-04-20T15:35:19.062Z,5.20
2019-04-20T15:37:47.482Z,3.65
2019-04-20T15:40:17.325Z,4.83
2019-04-20T15:42:56.097Z,3.27
2019-04-20T15:45:16.716Z,3.65
2019-04-20T15:47:45.878Z,3.77
2019-04-20T15:50:15.997Z,4.08
2019-04-20T15:52:49.457Z,2.83
2019-04-20T15:55:22.608Z,2.83
2019-04-20T15:57:45.425Z,3.17
2019-04-20T16:00:14.356Z,3.42
2019-04-20T16:02:49.483Z,3.27
2019-04-20T16:05:37.685Z,3.70
2019-04-20T16:08:45.970Z,6.58
2019-04-20T16:11:15.312Z,4.03
2019-04-20T16:13:49.436Z,4.35
2019-04-20T16:16:16.019Z,4.22
2019-04-20T16:18:46.442Z,6.83
2019-04-20T16:21:20.850Z,5.37
2019-04-20T16:24:20.135Z,5.90
2019-04-20T16:27:11.628Z,7.40
2019-04-20T16:29:41.752Z,5.17
2019-04-20T16:32:10.647Z,5.45
2019-04-20T16:34:40.332Z,5.20
2019-04-20T16:37:10.555Z,6.05
2019-04-20T16:39:40.460Z,5.45
2019-04-20T16:42:11.960Z,8.15
2019-04-20T16:44:41.056Z,5.42
2019-04-20T16:47:10.201Z,4.83
2019-04-20T16:49:39.106Z,6.20
2019-04-20T16:52:07.763Z,6.53
2019-04-20T16:54:37.551Z,5.58
2019-04-20T16:57:08.246Z,5.35
2019-04-20T16:59:40.071Z,6.45
2019-04-20T17:02:08.550Z,6.85
2019-04-20T17:04:37.531Z,8.28
2019-04-20T17:07:25.227Z,8.58
2019-04-20T17:09:54.040Z,7.72
2019-04-20T17:12:23.888Z,6.95
2019-04-20T17:14:53.698Z,8.00
2019-04-20T17:17:22.473Z,10.72
2019-04-20T17:19:51.495Z,12.82
2019-04-20T17:22:21.387Z,12.58
2019-04-20T17:24:51.565Z,15.38
2019-04-20T17:27:42.084Z,13.98
2019-04-20T17:30:29.588Z,11.18
2019-04-20T17:33:02.331Z,15.35
2019-04-20T17:35:46.027Z,10.13
2019-04-20T17:38:02.822Z,10.13
2019-04-20T17:40:51.220Z,11.18
2019-04-20T17:43:10.477Z,11.28
2019-04-20T17:45:43.242Z,18.67
2019-04-20T17:48:17.709Z,11.28
2019-04-20T17:50:54.549Z,11.22
2019-04-20T17:53:23.019Z,12.33
2019-04-20T17:55:49.370Z,14.75
2019-04-20T17:58:23.217Z,9.90
2019-04-20T18:01:24.332Z,10.98
2019-04-20T18:06:25.462Z,16.55
2019-04-20T18:09:00.406Z,18.37
2019-04-20T18:11:19.570Z,13.58
2019-04-20T18:13:46.259Z,19.02
2019-04-20T18:16:45.360Z,17.05
2019-04-20T18:19:29.503Z,18.65
2019-04-20T18:22:03.676Z,21.82
2019-04-20T18:24:59.681Z,15.50
2019-04-20T18:27:24.811Z,17.82
2019-04-20T18:29:52.822Z,16.97
2019-04-20T18:32:23.086Z,23.35
2019-04-20T18:35:04.408Z,16.23
2019-04-20T18:37:32.776Z,19.12
2019-04-20T18:40:09.089Z,31.95
2019-04-20T18:42:38.835Z,31.85
2019-04-20T18:45:21.944Z,37.50
2019-04-20T18:47:56.262Z,41.23
2019-04-20T18:50:17.340Z,63.20
2019-04-20T18:52:40.099Z,40.95
2019-04-20T18:55:17.313Z,33.55
2019-04-20T18:57:39.758Z,23.65
2019-04-20T19:00:18.032Z,26.77
2019-04-20T19:02:46.874Z,35.70
2019-04-20T19:05:11.498Z,27.87
2019-04-20T19:07:51.545Z,27.10
2019-04-20T19:10:21.028Z,35.48
2019-04-20T19:12:52.532Z,25.30
2019-04-20T19:15:55.229Z,27.67
2019-04-20T19:18:25.224Z,23.95
2019-04-20T19:20:50.840Z,27.67
2019-04-20T19:23:20.891Z,26.23
2019-04-20T19:25:49.848Z,28.38
2019-04-20T19:28:22.767Z,18.62
2019-04-20T19:31:03.643Z,17.87
2019-04-20T19:33:34.607Z,17.55
2019-04-20T19:35:59.735Z,20.95
2019-04-20T19:38:29.479Z,17.67
2019-04-20T19:41:01.708Z,19.95
2019-04-20T19:43:30.973Z,26.35
2019-04-20T19:46:35.166Z,43.15
2019-04-20T19:48:38.650Z,28.55
2019-04-20T19:51:22.374Z,28.47
2019-04-20T19:53:41.550Z,26.20
2019-04-20T19:56:07.757Z,22.67
2019-04-20T19:58:34.499Z,25.95
2019-04-20T20:00:57.532Z,25.97
2019-04-20T20:03:25.975Z,33.15
2019-04-20T20:05:57.503Z,57.15
2019-04-20T20:08:29.567Z,39.83
2019-04-20T20:10:59.189Z,37.45
2019-04-20T20:13:34.496Z,35.25
2019-04-20T20:16:02.399Z,40.15
2019-04-20T20:18:39.179Z,41.42
2019-04-20T20:21:12.244Z,41.05
2019-04-20T20:23:29.998Z,43.20
2019-04-20T20:25:59.221Z,43.83
2019-04-20T20:28:38.314Z,43.00
2019-04-20T20:31:08.122Z,36.35
2019-04-20T20:33:44.016Z,30.95
2019-04-20T20:36:07.842Z,36.95
2019-04-20T20:38:38.914Z,29.40
2019-04-20T20:41:12.389Z,29.42
2019-04-20T20:43:44.837Z,27.55
2019-04-20T20:46:18.481Z,26.17
2019-04-20T20:49:01.576Z,27.75
2019-04-20T20:51:22.955Z,26.62
2019-04-20T20:53:48.416Z,34.25
2019-04-20T20:56:15.044Z,37.42
2019-04-20T20:58:48.511Z,33.20
2019-04-20T21:01:12.906Z,26.93
2019-04-20T21:03:42.093Z,25.08
2019-04-20T21:06:07.511Z,25.20
2019-04-20T21:08:44.877Z,26.68
2019-04-20T21:11:13.120Z,26.05
2019-04-20T21:13:42.244Z,23.02
2019-04-20T21:16:16.369Z,31.07
2019-04-20T21:18:56.796Z,32.67
2019-04-20T21:21:21.890Z,41.40
2019-04-20T21:23:48.011Z,49.67
2019-04-20T21:26:17.003Z,41.53
2019-04-20T21:28:41.992Z,62.78
2019-04-20T21:31:18.550Z,65.37
2019-04-20T21:33:43.122Z,52.90
2019-04-20T21:36:13.501Z,53.48
2019-04-20T21:38:44.352Z,65.15
2019-04-20T21:41:16.426Z,73.75
2019-04-20T21:43:44.581Z,96.92
2019-04-20T21:46:16.415Z,85.72
2019-04-20T21:48:59.527Z,62.93
2019-04-20T21:51:30.620Z,57.17
2019-04-20T21:53:46.169Z,64.85
2019-04-20T21:56:15.737Z,72.05
2019-04-20T21:58:50.498Z,58.28
2019-04-20T22:01:25.332Z,58.63
2019-04-20T22:03:48.122Z,47.05
2019-04-20T22:06:18.220Z,40.92
2019-04-20T22:08:51.822Z,50.03
2019-04-20T22:11:17.853Z,42.33
2019-04-20T22:13:47.675Z,36.58
2019-04-20T22:16:18.604Z,28.65
2019-04-20T22:18:54.007Z,26.77
2019-04-20T22:21:25.145Z,25.43
2019-04-20T22:24:04.290Z,26.77
2019-04-20T22:26:27.737Z,28.57
2019-04-20T22:28:50.007Z,36.90
2019-04-20T22:31:20.241Z,28.35
2019-04-20T22:33:50.458Z,26.37
2019-04-20T22:36:20.216Z,23.80
2019-04-20T22:39:09.490Z,27.25
2019-04-20T22:41:47.951Z,29.00
2019-04-20T22:44:18.737Z,28.87
2019-04-20T22:46:44.482Z,26.85
2019-04-20T22:49:33.054Z,26.40
2019-04-20T22:51:53.117Z,27.05
2019-04-20T22:54:29.699Z,27.95
2019-04-20T22:56:57.157Z,29.70
2019-04-20T22:59:19.109Z,40.78
2019-04-20T23:01:51.483Z,31.70
2019-04-20T23:04:16.939Z,30.95
2019-04-20T23:06:49.651Z,31.50
2019-04-20T23:09:16.858Z,30.45
2019-04-20T23:11:45.680Z,28.25
2019-04-20T23:14:16.234Z,34.23
2019-04-20T23:16:49.244Z,31.25
2019-04-20T23:19:28.179Z,30.30
2019-04-20T23:21:52.150Z,29.02
2019-04-20T23:24:17.109Z,30.50
2019-04-20T23:26:47.628Z,27.60
2019-04-20T23:29:17.516Z,34.35
2019-04-20T23:31:55.318Z,33.48
2019-04-20T23:34:21.642Z,30.50
2019-04-20T23:36:50.222Z,29.32
2019-04-20T23:39:17.135Z,29.82
2019-04-20T23:41:52.531Z,28.57
2019-04-20T23:44:21.022Z,28.15
2019-04-20T23:47:22.364Z,30.52
2019-04-20T23:50:12.347Z,27.87
2019-04-20T23:52:51.556Z,33.90
2019-04-20T23:55:02.076Z,30.43
2019-04-20T23:57:26.055Z,28.55
2019-04-20T23:59:55.061Z,32.95
